Antioch, Illinois
Current Conditions -  °F | °C
As of 6:53 PM on Tuesday 21 Oct 2014 (Local Time) from KENW Reporting Station
Clear Clear  
Wind Chill: 40°   Ceiling: Unl
Heat Index: 43°   Visibility: 10mi
Dew Point: 37°   Wind: 5mph
Humidity: 80%   Direction: 360°N
Pressure: 30.24"   Gusts: NA
Location:  42.48°N, 88.1°W
Report Text: KENW 212353Z 36004KT 10SM CLR 06/03 A3024 RMK AO2 SLP245 T00610028 10100 20061 53009
Loading
Personal Weather Stations






























Interactive Weather Map New forecast layout! Learn more

10-Day Weather Forecast

Advertisements
Track Severe Weather on mobile